sensor_id;sensor_type;location;lat;lon;timestamp;temperature;humidity
38910;DHT22;24676;51.360;12.354;2022-11-15T05:00:33;7.10;99.90
38910;DHT22;24676;51.360;12.354;2022-11-15T05:03:17;7.10;99.90
38910;DHT22;24676;51.360;12.354;2022-11-15T05:06:34;7.10;99.90
38910;DHT22;24676;51.360;12.354;2022-11-15T05:09:19;7.10;99.90
38910;DHT22;24676;51.360;12.354;2022-11-15T05:12:04;7.10;99.90
38910;DHT22;24676;51.360;12.354;2022-11-15T05:14:49;7.00;99.90
38910;DHT22;24676;51.360;12.354;2022-11-15T05:17:33;7.00;99.90
38910;DHT22;24676;51.360;12.354;2022-11-15T05:20:17;7.00;99.90
38910;DHT22;24676;51.360;12.354;2022-11-15T05:23:02;7.00;99.90
38910;DHT22;24676;51.360;12.354;2022-11-15T05:25:46;7.00;99.90
38910;DHT22;24676;51.360;12.354;2022-11-15T05:28:31;7.00;99.90
38910;DHT22;24676;51.360;12.354;2022-11-15T05:31:16;7.00;99.90
38910;DHT22;24676;51.360;12.354;2022-11-15T05:34:00;7.10;99.90
38910;DHT22;24676;51.360;12.354;2022-11-15T05:36:47;7.00;99.90
38910;DHT22;24676;51.360;12.354;2022-11-15T05:39:32;7.10;99.90
38910;DHT22;24676;51.360;12.354;2022-11-15T05:42:16;7.10;99.90
38910;DHT22;24676;51.360;12.354;2022-11-15T05:45:03;7.10;99.90
38910;DHT22;24676;51.360;12.354;2022-11-15T05:47:49;7.10;99.90
38910;DHT22;24676;51.360;12.354;2022-11-15T05:50:36;7.10;99.90
38910;DHT22;24676;51.360;12.354;2022-11-15T05:53:22;7.10;99.90
38910;DHT22;24676;51.360;12.354;2022-11-15T05:56:07;7.10;99.90
38910;DHT22;24676;51.360;12.354;2022-11-15T05:58:53;7.10;99.90
38910;DHT22;24676;51.360;12.354;2022-11-15T06:01:39;7.10;99.90
38910;DHT22;24676;51.360;12.354;2022-11-15T06:04:24;7.10;99.90
38910;DHT22;24676;51.360;12.354;2022-11-15T06:07:08;7.10;99.90
38910;DHT22;24676;51.360;12.354;2022-11-15T06:09:53;7.10;99.90
38910;DHT22;24676;51.360;12.354;2022-11-15T06:12:37;7.10;99.90
38910;DHT22;24676;51.360;12.354;2022-11-15T06:15:21;7.00;99.90
38910;DHT22;24676;51.360;12.354;2022-11-15T06:18:06;7.00;99.90
38910;DHT22;24676;51.360;12.354;2022-11-15T06:20:50;7.00;99.90
38910;DHT22;24676;51.360;12.354;2022-11-15T06:23:35;6.90;99.90
38910;DHT22;24676;51.360;12.354;2022-11-15T06:26:19;7.00;99.90
38910;DHT22;24676;51.360;12.354;2022-11-15T06:29:04;7.00;99.90
38910;DHT22;24676;51.360;12.354;2022-11-15T06:31:48;7.00;99.90
38910;DHT22;24676;51.360;12.354;2022-11-15T06:34:32;7.00;99.90
38910;DHT22;24676;51.360;12.354;2022-11-15T06:37:16;7.00;99.90
38910;DHT22;24676;51.360;12.354;2022-11-15T06:40:01;7.00;99.90
38910;DHT22;24676;51.360;12.354;2022-11-15T06:42:45;7.00;99.90
38910;DHT22;24676;51.360;12.354;2022-11-15T06:45:29;7.10;99.90
38910;DHT22;24676;51.360;12.354;2022-11-15T06:48:14;7.10;99.90
38910;DHT22;24676;51.360;12.354;2022-11-15T06:51:00;7.20;99.90
38910;DHT22;24676;51.360;12.354;2022-11-15T06:53:45;7.20;99.90
38910;DHT22;24676;51.360;12.354;2022-11-15T06:56:29;7.30;99.90
38910;DHT22;24676;51.360;12.354;2022-11-15T06:59:13;7.20;99.90
38910;DHT22;24676;51.360;12.354;2022-11-15T07:01:57;7.30;99.90
38910;DHT22;24676;51.360;12.354;2022-11-15T07:04:42;7.30;99.90
38910;DHT22;24676;51.360;12.354;2022-11-15T07:07:26;7.40;99.90
38910;DHT22;24676;51.360;12.354;2022-11-15T07:10:11;7.40;99.90
38910;DHT22;24676;51.360;12.354;2022-11-15T07:12:56;7.40;99.90
38910;DHT22;24676;51.360;12.354;2022-11-15T07:15:40;7.50;99.90
38910;DHT22;24676;51.360;12.354;2022-11-15T07:18:24;7.50;99.90
38910;DHT22;24676;51.360;12.354;2022-11-15T07:21:11;7.60;99.90
38910;DHT22;24676;51.360;12.354;2022-11-15T07:23:56;7.80;99.90
38910;DHT22;24676;51.360;12.354;2022-11-15T07:26:40;7.80;99.90
38910;DHT22;24676;51.360;12.354;2022-11-15T07:29:24;8.00;99.90
38910;DHT22;24676;51.360;12.354;2022-11-15T07:32:09;8.10;99.90
38910;DHT22;24676;51.360;12.354;2022-11-15T07:34:53;8.20;99.90
38910;DHT22;24676;51.360;12.354;2022-11-15T07:37:37;8.60;99.90
38910;DHT22;24676;51.360;12.354;2022-11-15T07:40:22;9.10;99.90
38910;DHT22;24676;51.360;12.354;2022-11-15T07:43:07;9.70;99.90
38910;DHT22;24676;51.360;12.354;2022-11-15T07:45:52;10.20;99.90
38910;DHT22;24676;51.360;12.354;2022-11-15T07:48:38;10.70;99.90
38910;DHT22;24676;51.360;12.354;2022-11-15T07:51:24;11.00;99.90
38910;DHT22;24676;51.360;12.354;2022-11-15T07:54:08;11.40;99.90
38910;DHT22;24676;51.360;12.354;2022-11-15T07:56:52;11.70;99.90
38910;DHT22;24676;51.360;12.354;2022-11-15T07:59:36;11.90;99.90
38910;DHT22;24676;51.360;12.354;2022-11-15T08:02:20;12.20;99.90
38910;DHT22;24676;51.360;12.354;2022-11-15T08:05:05;12.50;99.90
38910;DHT22;24676;51.360;12.354;2022-11-15T08:07:49;12.80;99.90
38910;DHT22;24676;51.360;12.354;2022-11-15T08:10:34;13.10;99.90
38910;DHT22;24676;51.360;12.354;2022-11-15T08:13:19;13.40;99.90
38910;DHT22;24676;51.360;12.354;2022-11-15T08:16:04;13.50;95.40
38910;DHT22;24676;51.360;12.354;2022-11-15T08:18:49;13.50;95.70
38910;DHT22;24676;51.360;12.354;2022-11-15T08:21:34;13.60;94.30
38910;DHT22;24676;51.360;12.354;2022-11-15T08:24:19;13.70;92.80
38910;DHT22;24676;51.360;12.354;2022-11-15T08:27:04;13.80;92.80
38910;DHT22;24676;51.360;12.354;2022-11-15T08:29:49;13.90;92.30
38910;DHT22;24676;51.360;12.354;2022-11-15T08:32:33;13.70;91.70
38910;DHT22;24676;51.360;12.354;2022-11-15T08:35:18;13.80;91.70
38910;DHT22;24676;51.360;12.354;2022-11-15T08:38:03;14.00;90.80
38910;DHT22;24676;51.360;12.354;2022-11-15T08:40:47;14.00;90.60
38910;DHT22;24676;51.360;12.354;2022-11-15T08:43:32;14.10;90.20
38910;DHT22;24676;51.360;12.354;2022-11-15T08:46:17;14.40;88.90
38910;DHT22;24676;51.360;12.354;2022-11-15T08:49:02;14.50;85.20
38910;DHT22;24676;51.360;12.354;2022-11-15T08:51:46;14.50;82.40
38910;DHT22;24676;51.360;12.354;2022-11-15T08:54:31;14.40;83.40
38910;DHT22;24676;51.360;12.354;2022-11-15T08:57:15;14.50;82.50
38910;DHT22;24676;51.360;12.354;2022-11-15T09:00:00;14.70;80.70
38910;DHT22;24676;51.360;12.354;2022-11-15T09:02:45;14.90;78.80
38910;DHT22;24676;51.360;12.354;2022-11-15T09:05:29;15.10;78.70
38910;DHT22;24676;51.360;12.354;2022-11-15T09:08:13;15.50;78.00
38910;DHT22;24676;51.360;12.354;2022-11-15T09:10:58;16.20;74.30
38910;DHT22;24676;51.360;12.354;2022-11-15T09:13:42;16.70;70.80
38910;DHT22;24676;51.360;12.354;2022-11-15T09:16:26;17.00;65.90
38910;DHT22;24676;51.360;12.354;2022-11-15T09:19:10;16.90;65.30
38910;DHT22;24676;51.360;12.354;2022-11-15T09:21:54;17.40;65.40
38910;DHT22;24676;51.360;12.354;2022-11-15T09:24:38;17.70;62.10
38910;DHT22;24676;51.360;12.354;2022-11-15T09:27:23;18.00;60.50
38910;DHT22;24676;51.360;12.354;2022-11-15T09:30:10;17.80;59.30
38910;DHT22;24676;51.360;12.354;2022-11-15T09:32:55;17.60;60.00
38910;DHT22;24676;51.360;12.354;2022-11-15T09:35:42;17.10;61.20
38910;DHT22;24676;51.360;12.354;2022-11-15T09:38:26;16.80;64.00
38910;DHT22;24676;51.360;12.354;2022-11-15T09:47:05;17.00;62.60
38910;DHT22;24676;51.360;12.354;2022-11-15T09:49:56;17.20;61.10
38910;DHT22;24676;51.360;12.354;2022-11-15T09:52:44;17.40;60.00
38910;DHT22;24676;51.360;12.354;2022-11-15T09:55:32;17.30;59.00
38910;DHT22;24676;51.360;12.354;2022-11-15T09:58:22;17.20;59.60
38910;DHT22;24676;51.360;12.354;2022-11-15T10:01:13;17.10;60.00
38910;DHT22;24676;51.360;12.354;2022-11-15T10:04:00;17.10;61.00
38910;DHT22;24676;51.360;12.354;2022-11-15T10:06:46;17.10;59.90
38910;DHT22;24676;51.360;12.354;2022-11-15T10:09:43;17.10;59.80
38910;DHT22;24676;51.360;12.354;2022-11-15T10:12:30;17.00;59.40
38910;DHT22;24676;51.360;12.354;2022-11-15T10:15:18;16.90;59.20
38910;DHT22;24676;51.360;12.354;2022-11-15T10:18:16;16.80;60.60
38910;DHT22;24676;51.360;12.354;2022-11-15T10:21:16;16.80;60.40
38910;DHT22;24676;51.360;12.354;2022-11-15T10:24:01;16.70;59.90
38910;DHT22;24676;51.360;12.354;2022-11-15T10:26:46;16.70;59.90
38910;DHT22;24676;51.360;12.354;2022-11-15T10:29:30;16.70;60.70
38910;DHT22;24676;51.360;12.354;2022-11-15T10:32:16;16.70;60.00
38910;DHT22;24676;51.360;12.354;2022-11-15T10:35:00;16.70;59.80
38910;DHT22;24676;51.360;12.354;2022-11-15T10:38:06;16.70;60.40
38910;DHT22;24676;51.360;12.354;2022-11-15T10:40:51;16.70;62.50
38910;DHT22;24676;51.360;12.354;2022-11-15T10:49:39;17.10;60.40
38910;DHT22;24676;51.360;12.354;2022-11-15T10:52:36;17.30;60.70
38910;DHT22;24676;51.360;12.354;2022-11-15T10:55:24;17.50;59.70
38910;DHT22;24676;51.360;12.354;2022-11-15T10:58:41;17.60;59.30
38910;DHT22;24676;51.360;12.354;2022-11-15T11:01:27;17.60;59.80
38910;DHT22;24676;51.360;12.354;2022-11-15T11:04:13;17.70;58.90
38910;DHT22;24676;51.360;12.354;2022-11-15T11:06:59;17.60;58.80
38910;DHT22;24676;51.360;12.354;2022-11-15T11:09:43;17.60;59.30
38910;DHT22;24676;51.360;12.354;2022-11-15T11:12:30;17.50;60.00
38910;DHT22;24676;51.360;12.354;2022-11-15T11:15:17;17.60;59.50
38910;DHT22;24676;51.360;12.354;2022-11-15T11:18:25;17.50;59.40
38910;DHT22;24676;51.360;12.354;2022-11-15T11:21:15;17.40;60.00
38910;DHT22;24676;51.360;12.354;2022-11-15T11:30:50;17.90;59.40
38910;DHT22;24676;51.360;12.354;2022-11-15T11:33:42;18.20;59.10
38910;DHT22;24676;51.360;12.354;2022-11-15T11:39:39;18.40;57.00
38910;DHT22;24676;51.360;12.354;2022-11-15T11:42:37;18.40;57.10
38910;DHT22;24676;51.360;12.354;2022-11-15T11:51:05;18.20;57.40
38910;DHT22;24676;51.360;12.354;2022-11-15T11:53:57;18.10;58.60
38910;DHT22;24676;51.360;12.354;2022-11-15T11:56:43;18.10;58.30
38910;DHT22;24676;51.360;12.354;2022-11-15T12:05:13;18.20;58.30
38910;DHT22;24676;51.360;12.354;2022-11-15T12:11:04;18.60;56.60
38910;DHT22;24676;51.360;12.354;2022-11-15T12:13:56;18.60;56.80
38910;DHT22;24676;51.360;12.354;2022-11-15T12:16:42;18.60;57.00
38910;DHT22;24676;51.360;12.354;2022-11-15T12:19:26;18.50;57.40
38910;DHT22;24676;51.360;12.354;2022-11-15T12:27:44;18.30;57.60
38910;DHT22;24676;51.360;12.354;2022-11-15T12:30:40;18.40;57.80
38910;DHT22;24676;51.360;12.354;2022-11-15T12:33:30;18.30;57.50
38910;DHT22;24676;51.360;12.354;2022-11-15T12:39:06;17.80;58.80
38910;DHT22;24676;51.360;12.354;2022-11-15T12:47:26;17.20;60.50
38910;DHT22;24676;51.360;12.354;2022-11-15T12:50:12;17.10;61.80
38910;DHT22;24676;51.360;12.354;2022-11-15T12:53:25;16.90;62.10
38910;DHT22;24676;51.360;12.354;2022-11-15T12:59:00;16.60;63.60
38910;DHT22;24676;51.360;12.354;2022-11-15T13:04:30;16.50;64.60
38910;DHT22;24676;51.360;12.354;2022-11-15T13:13:03;16.50;65.60
38910;DHT22;24676;51.360;12.354;2022-11-15T13:15:53;16.60;65.70
38910;DHT22;24676;51.360;12.354;2022-11-15T13:18:40;16.50;64.40
38910;DHT22;24676;51.360;12.354;2022-11-15T13:21:24;16.50;64.10
38910;DHT22;24676;51.360;12.354;2022-11-15T13:24:27;16.40;65.40
38910;DHT22;24676;51.360;12.354;2022-11-15T13:27:15;16.30;66.00
38910;DHT22;24676;51.360;12.354;2022-11-15T13:30:03;16.30;65.30
38910;DHT22;24676;51.360;12.354;2022-11-15T13:32:47;16.20;66.00
38910;DHT22;24676;51.360;12.354;2022-11-15T13:35:31;16.20;66.30
38910;DHT22;24676;51.360;12.354;2022-11-15T13:41:17;16.10;68.10
38910;DHT22;24676;51.360;12.354;2022-11-15T13:44:03;16.00;68.80
38910;DHT22;24676;51.360;12.354;2022-11-15T13:46:47;15.80;68.80
38910;DHT22;24676;51.360;12.354;2022-11-15T13:49:32;15.80;69.80
38910;DHT22;24676;51.360;12.354;2022-11-15T13:52:16;15.70;70.00
38910;DHT22;24676;51.360;12.354;2022-11-15T13:57:49;15.60;71.10
38910;DHT22;24676;51.360;12.354;2022-11-15T14:03:26;15.60;71.40
38910;DHT22;24676;51.360;12.354;2022-11-15T14:06:12;15.50;72.20
38910;DHT22;24676;51.360;12.354;2022-11-15T14:09:00;15.50;72.30
38910;DHT22;24676;51.360;12.354;2022-11-15T14:11:54;15.40;72.70
38910;DHT22;24676;51.360;12.354;2022-11-15T14:14:44;15.30;73.60
38910;DHT22;24676;51.360;12.354;2022-11-15T14:23:27;15.00;77.10
38910;DHT22;24676;51.360;12.354;2022-11-15T14:29:25;14.60;84.20
38910;DHT22;24676;51.360;12.354;2022-11-15T14:32:17;14.50;90.40
38910;DHT22;24676;51.360;12.354;2022-11-15T14:35:02;14.40;92.60
38910;DHT22;24676;51.360;12.354;2022-11-15T14:37:48;14.30;94.00
38910;DHT22;24676;51.360;12.354;2022-11-15T14:40:32;14.20;96.10
38910;DHT22;24676;51.360;12.354;2022-11-15T14:43:16;14.00;98.00
38910;DHT22;24676;51.360;12.354;2022-11-15T14:46:01;13.90;99.80
38910;DHT22;24676;51.360;12.354;2022-11-15T14:48:45;13.80;99.90
38910;DHT22;24676;51.360;12.354;2022-11-15T14:51:29;13.70;99.90
38910;DHT22;24676;51.360;12.354;2022-11-15T14:54:14;13.70;99.90
38910;DHT22;24676;51.360;12.354;2022-11-15T14:56:58;13.60;99.90
38910;DHT22;24676;51.360;12.354;2022-11-15T14:59:43;13.50;99.90
38910;DHT22;24676;51.360;12.354;2022-11-15T15:02:27;13.50;99.90
38910;DHT22;24676;51.360;12.354;2022-11-15T15:07:58;13.40;99.90
38910;DHT22;24676;51.360;12.354;2022-11-15T15:10:45;13.40;99.90
38910;DHT22;24676;51.360;12.354;2022-11-15T15:13:29;13.30;99.90
38910;DHT22;24676;51.360;12.354;2022-11-15T15:16:14;13.20;99.90
38910;DHT22;24676;51.360;12.354;2022-11-15T15:18:58;13.10;99.90
38910;DHT22;24676;51.360;12.354;2022-11-15T15:21:42;13.00;99.90
38910;DHT22;24676;51.360;12.354;2022-11-15T15:24:26;12.80;99.90
38910;DHT22;24676;51.360;12.354;2022-11-15T15:27:11;12.70;99.90
38910;DHT22;24676;51.360;12.354;2022-11-15T15:29:55;12.50;99.90
38910;DHT22;24676;51.360;12.354;2022-11-15T15:32:40;12.40;99.90
38910;DHT22;24676;51.360;12.354;2022-11-15T15:35:28;12.30;99.90
38910;DHT22;24676;51.360;12.354;2022-11-15T15:38:13;12.20;99.90
38910;DHT22;24676;51.360;12.354;2022-11-15T15:40:59;12.10;99.90
38910;DHT22;24676;51.360;12.354;2022-11-15T15:43:45;12.00;99.90
38910;DHT22;24676;51.360;12.354;2022-11-15T15:46:30;11.90;99.90
38910;DHT22;24676;51.360;12.354;2022-11-15T15:49:14;11.90;99.90
38910;DHT22;24676;51.360;12.354;2022-11-15T15:51:58;11.80;99.90
38910;DHT22;24676;51.360;12.354;2022-11-15T15:54:42;11.70;99.90
38910;DHT22;24676;51.360;12.354;2022-11-15T15:57:26;11.60;99.90
38910;DHT22;24676;51.360;12.354;2022-11-15T16:00:11;11.60;99.90
38910;DHT22;24676;51.360;12.354;2022-11-15T16:02:55;11.50;99.90
38910;DHT22;24676;51.360;12.354;2022-11-15T16:05:39;11.40;99.90
38910;DHT22;24676;51.360;12.354;2022-11-15T16:08:24;11.30;99.90
38910;DHT22;24676;51.360;12.354;2022-11-15T16:11:10;11.20;99.90
38910;DHT22;24676;51.360;12.354;2022-11-15T16:13:54;11.10;99.90
38910;DHT22;24676;51.360;12.354;2022-11-15T16:16:38;11.00;99.90
38910;DHT22;24676;51.360;12.354;2022-11-15T16:19:23;10.80;99.90
38910;DHT22;24676;51.360;12.354;2022-11-15T16:22:07;10.70;99.90
38910;DHT22;24676;51.360;12.354;2022-11-15T16:24:51;10.60;99.90
38910;DHT22;24676;51.360;12.354;2022-11-15T16:27:36;10.50;99.90
38910;DHT22;24676;51.360;12.354;2022-11-15T16:30:22;10.50;99.90
38910;DHT22;24676;51.360;12.354;2022-11-15T16:33:07;10.40;99.90
38910;DHT22;24676;51.360;12.354;2022-11-15T16:35:52;10.20;99.90
38910;DHT22;24676;51.360;12.354;2022-11-15T16:38:36;10.10;99.90
38910;DHT22;24676;51.360;12.354;2022-11-15T16:41:22;10.00;99.90
38910;DHT22;24676;51.360;12.354;2022-11-15T16:44:06;9.90;99.90
38910;DHT22;24676;51.360;12.354;2022-11-15T16:46:51;9.90;99.90
38910;DHT22;24676;51.360;12.354;2022-11-15T16:49:37;9.90;99.90
38910;DHT22;24676;51.360;12.354;2022-11-15T16:52:21;9.90;99.90
38910;DHT22;24676;51.360;12.354;2022-11-15T16:55:05;9.80;99.90
38910;DHT22;24676;51.360;12.354;2022-11-15T16:57:50;9.80;99.90
38910;DHT22;24676;51.360;12.354;2022-11-15T17:00:34;9.70;99.90
38910;DHT22;24676;51.360;12.354;2022-11-15T17:03:19;9.70;99.90
38910;DHT22;24676;51.360;12.354;2022-11-15T17:06:04;9.60;99.90
38910;DHT22;24676;51.360;12.354;2022-11-15T17:08:48;9.60;99.90
38910;DHT22;24676;51.360;12.354;2022-11-15T17:11:32;9.60;99.90
38910;DHT22;24676;51.360;12.354;2022-11-15T17:14:16;9.60;99.90
38910;DHT22;24676;51.360;12.354;2022-11-15T17:17:01;9.50;99.90
38910;DHT22;24676;51.360;12.354;2022-11-15T17:19:45;9.50;99.90
38910;DHT22;24676;51.360;12.354;2022-11-15T17:22:30;9.50;99.90
38910;DHT22;24676;51.360;12.354;2022-11-15T17:25:15;9.50;99.90
38910;DHT22;24676;51.360;12.354;2022-11-15T17:27:59;9.40;99.90
38910;DHT22;24676;51.360;12.354;2022-11-15T17:30:43;9.40;99.90
38910;DHT22;24676;51.360;12.354;2022-11-15T17:33:27;9.40;99.90
38910;DHT22;24676;51.360;12.354;2022-11-15T17:36:11;9.40;99.90
38910;DHT22;24676;51.360;12.354;2022-11-15T17:38:56;9.30;99.90
38910;DHT22;24676;51.360;12.354;2022-11-15T17:41:40;9.10;99.90
38910;DHT22;24676;51.360;12.354;2022-11-15T17:44:24;9.10;99.90
38910;DHT22;24676;51.360;12.354;2022-11-15T17:47:08;9.10;99.90
38910;DHT22;24676;51.360;12.354;2022-11-15T17:49:52;9.00;99.90
38910;DHT22;24676;51.360;12.354;2022-11-15T17:52:37;9.10;99.90
38910;DHT22;24676;51.360;12.354;2022-11-15T17:55:21;9.00;99.90
38910;DHT22;24676;51.360;12.354;2022-11-15T17:58:05;9.00;99.90
38910;DHT22;24676;51.360;12.354;2022-11-15T18:00:51;9.00;99.90
38910;DHT22;24676;51.360;12.354;2022-11-15T18:03:36;9.00;99.90
38910;DHT22;24676;51.360;12.354;2022-11-15T18:06:22;9.10;99.90
38910;DHT22;24676;51.360;12.354;2022-11-15T18:09:06;9.10;99.90
38910;DHT22;24676;51.360;12.354;2022-11-15T18:11:51;9.00;99.90
38910;DHT22;24676;51.360;12.354;2022-11-15T18:14:37;8.90;99.90
38910;DHT22;24676;51.360;12.354;2022-11-15T18:17:21;8.80;99.90
38910;DHT22;24676;51.360;12.354;2022-11-15T18:20:07;8.70;99.90
38910;DHT22;24676;51.360;12.354;2022-11-15T18:22:52;8.50;99.90
38910;DHT22;24676;51.360;12.354;2022-11-15T18:25:37;8.40;99.90
38910;DHT22;24676;51.360;12.354;2022-11-15T18:28:22;8.30;99.90
38910;DHT22;24676;51.360;12.354;2022-11-15T18:33:58;8.20;99.90
38910;DHT22;24676;51.360;12.354;2022-11-15T18:36:43;8.30;99.90
38910;DHT22;24676;51.360;12.354;2022-11-15T18:39:27;8.40;99.90
38910;DHT22;24676;51.360;12.354;2022-11-15T18:42:12;8.50;99.90
38910;DHT22;24676;51.360;12.354;2022-11-15T18:44:56;8.70;99.90
38910;DHT22;24676;51.360;12.354;2022-11-15T18:47:40;8.80;99.90
38910;DHT22;24676;51.360;12.354;2022-11-15T18:50:25;8.90;99.90
38910;DHT22;24676;51.360;12.354;2022-11-15T18:53:09;9.00;99.90
38910;DHT22;24676;51.360;12.354;2022-11-15T18:55:53;9.10;99.90
38910;DHT22;24676;51.360;12.354;2022-11-15T18:58:49;9.20;99.90
38910;DHT22;24676;51.360;12.354;2022-11-15T19:01:38;9.30;99.90
38910;DHT22;24676;51.360;12.354;2022-11-15T19:04:23;9.30;99.90
38910;DHT22;24676;51.360;12.354;2022-11-15T19:07:07;9.40;99.90
38910;DHT22;24676;51.360;12.354;2022-11-15T19:09:51;9.40;99.90
38910;DHT22;24676;51.360;12.354;2022-11-15T19:12:36;9.50;99.90
38910;DHT22;24676;51.360;12.354;2022-11-15T19:15:20;9.50;99.90
38910;DHT22;24676;51.360;12.354;2022-11-15T19:18:04;9.50;99.90
38910;DHT22;24676;51.360;12.354;2022-11-15T19:20:48;9.50;99.90
38910;DHT22;24676;51.360;12.354;2022-11-15T19:23:36;9.40;99.90
38910;DHT22;24676;51.360;12.354;2022-11-15T19:26:22;9.40;99.90
38910;DHT22;24676;51.360;12.354;2022-11-15T19:29:07;9.50;99.90
38910;DHT22;24676;51.360;12.354;2022-11-15T19:31:56;9.50;99.90
38910;DHT22;24676;51.360;12.354;2022-11-15T19:34:40;9.50;99.90
38910;DHT22;24676;51.360;12.354;2022-11-15T19:37:24;9.50;99.90
38910;DHT22;24676;51.360;12.354;2022-11-15T19:40:09;9.50;99.90
38910;DHT22;24676;51.360;12.354;2022-11-15T19:42:53;9.50;99.90
38910;DHT22;24676;51.360;12.354;2022-11-15T19:45:37;9.50;99.90
38910;DHT22;24676;51.360;12.354;2022-11-15T19:48:22;9.50;99.90
38910;DHT22;24676;51.360;12.354;2022-11-15T19:51:09;9.50;99.90
38910;DHT22;24676;51.360;12.354;2022-11-15T19:53:56;9.40;99.90
38910;DHT22;24676;51.360;12.354;2022-11-15T19:56:40;9.40;99.90
38910;DHT22;24676;51.360;12.354;2022-11-15T19:59:24;9.30;99.90
38910;DHT22;24676;51.360;12.354;2022-11-15T20:02:10;9.30;99.90
38910;DHT22;24676;51.360;12.354;2022-11-15T20:04:55;9.20;99.90
38910;DHT22;24676;51.360;12.354;2022-11-15T20:07:39;9.10;99.90
38910;DHT22;24676;51.360;12.354;2022-11-15T20:10:23;9.00;99.90
38910;DHT22;24676;51.360;12.354;2022-11-15T20:13:07;9.00;99.90
38910;DHT22;24676;51.360;12.354;2022-11-15T20:15:52;8.80;99.90
38910;DHT22;24676;51.360;12.354;2022-11-15T20:18:36;8.80;99.90
38910;DHT22;24676;51.360;12.354;2022-11-15T20:21:20;8.80;99.90
38910;DHT22;24676;51.360;12.354;2022-11-15T20:24:05;8.70;99.90
38910;DHT22;24676;51.360;12.354;2022-11-15T20:26:49;8.70;99.90
38910;DHT22;24676;51.360;12.354;2022-11-15T20:29:33;8.60;99.90
38910;DHT22;24676;51.360;12.354;2022-11-15T20:32:18;8.60;99.90
38910;DHT22;24676;51.360;12.354;2022-11-15T20:35:02;8.60;99.90
38910;DHT22;24676;51.360;12.354;2022-11-15T20:37:46;8.50;99.90
38910;DHT22;24676;51.360;12.354;2022-11-15T20:40:31;8.50;99.90
38910;DHT22;24676;51.360;12.354;2022-11-15T20:43:17;8.50;99.90
38910;DHT22;24676;51.360;12.354;2022-11-15T20:46:01;8.40;99.90
38910;DHT22;24676;51.360;12.354;2022-11-15T20:48:46;8.40;99.90
38910;DHT22;24676;51.360;12.354;2022-11-15T20:51:30;8.30;99.90
38910;DHT22;24676;51.360;12.354;2022-11-15T20:54:15;8.30;99.90
38910;DHT22;24676;51.360;12.354;2022-11-15T20:56:59;8.20;99.90
38910;DHT22;24676;51.360;12.354;2022-11-15T20:59:43;8.20;99.90
38910;DHT22;24676;51.360;12.354;2022-11-15T21:02:27;8.10;99.90
38910;DHT22;24676;51.360;12.354;2022-11-15T21:05:11;8.00;99.90
38910;DHT22;24676;51.360;12.354;2022-11-15T21:07:56;7.90;99.90
38910;DHT22;24676;51.360;12.354;2022-11-15T21:10:40;7.80;99.90
38910;DHT22;24676;51.360;12.354;2022-11-15T21:13:44;7.70;99.90
38910;DHT22;24676;51.360;12.354;2022-11-15T21:16:28;7.70;99.90
38910;DHT22;24676;51.360;12.354;2022-11-15T21:19:13;7.70;99.90
38910;DHT22;24676;51.360;12.354;2022-11-15T21:21:57;7.70;99.90
38910;DHT22;24676;51.360;12.354;2022-11-15T21:24:42;7.70;99.90
38910;DHT22;24676;51.360;12.354;2022-11-15T21:27:26;7.60;99.90
38910;DHT22;24676;51.360;12.354;2022-11-15T21:30:11;7.60;99.90
38910;DHT22;24676;51.360;12.354;2022-11-15T21:32:56;7.60;99.90
38910;DHT22;24676;51.360;12.354;2022-11-15T21:35:40;7.60;99.90
38910;DHT22;24676;51.360;12.354;2022-11-15T21:38:27;7.60;99.90
38910;DHT22;24676;51.360;12.354;2022-11-15T21:41:11;7.50;99.90
38910;DHT22;24676;51.360;12.354;2022-11-15T21:43:59;7.50;99.90
38910;DHT22;24676;51.360;12.354;2022-11-15T21:46:44;7.50;99.90
38910;DHT22;24676;51.360;12.354;2022-11-15T21:49:28;7.50;99.90
38910;DHT22;24676;51.360;12.354;2022-11-15T21:52:12;7.50;99.90
38910;DHT22;24676;51.360;12.354;2022-11-15T21:54:56;7.50;99.90
38910;DHT22;24676;51.360;12.354;2022-11-15T21:57:40;7.50;99.90
